FW1317 Weather Reports


Display with metric or nautical units.
time (UTC)temp
F
wind
direction
speed
MPH
gust
MPH
rain 1hr
in
rain 24hr
in
rain mn
in
humidity
%
barometer
mb
20190324220017 42 0.0 0.0 0.00 0.00 0.00 78 1028.5
20190324215015 41 0.0 0.0 0.00 0.00 0.00 77 1028.3
20190324214015 41 0.0 0.0 0.00 0.00 0.00 78 1028.5
20190324213015 41 0.0 0.0 0.00 0.00 0.00 77 1028.6
20190324212015 41 0.0 0.0 0.00 0.00 0.00 75 1028.4
20190324211015 42 0.0 0.0 0.00 0.00 0.00 76 1028.6
20190324210015 42 0.0 0.0 0.00 0.00 0.00 75 1028.5
20190324205015 42 0.0 0.0 0.00 0.00 0.00 75 1028.4
20190324204015 42 0.0 0.0 0.00 0.00 0.00 74 1028.4
20190324203015 42 0.0 0.0 0.00 0.00 0.00 76 1028.5
20190324202015 41 0.0 0.0 0.00 0.00 0.00 76 1028.3
20190324201016 41 0.0 0.0 0.00 0.00 0.00 75 1028.3
20190324200015 42 0.0 0.0 0.00 0.00 0.00 74 1028.1
20190324195015 42 0.0 0.0 0.00 0.00 0.00 73 1028.1
20190324194015 42 0.0 0.0 0.00 0.00 0.00 72 1028.0
20190324193015 43 0.0 0.0 0.00 0.00 0.00 72 1028.0
20190324192015 44 0.0 0.0 0.00 0.00 0.00 69 1028.0
20190324191015 45 0.0 0.0 0.00 0.00 0.00 66 1027.8
20190324190015 46 0.0 0.0 0.00 0.00 0.00 65 1027.8
20190324185015 47 0.0 0.0 0.00 0.00 0.00 64 1027.8
20190324184016 48 0.0 0.0 0.00 0.00 0.00 63 1027.8
20190324183015 49 0.0 0.0 0.00 0.00 0.00 61 1027.7
20190324182015 49 0.0 0.0 0.00 0.00 0.00 60 1027.7
20190324181015 50 0.0 0.0 0.00 0.00 0.00 59 1027.6
20190324180015 51 0.0 1.0 0.00 0.00 0.00 58 1027.5
20190324175015 52 259 0.0 1.0 0.00 0.00 0.00 56 1027.6
20190324174015 53 0.0 1.0 0.00 0.00 0.00 53 1027.5
20190324173015 53 333 0.0 1.0 0.00 0.00 0.00 52 1027.4
20190324172015 54 342 0.0 2.0 0.00 0.00 0.00 51 1027.6
20190324171015 54 26 0.0 2.0 0.00 0.00 0.00 50 1027.6
20190324170015 54 100 0.0 1.0 0.00 0.00 0.00 50 1027.5
20190324165015 55 132 0.0 1.0 0.00 0.00 0.00 52 1027.3
20190324164015 55 312 0.0 1.0 0.00 0.00 0.00 53 1027.3
20190324163015 56 0.0 0.0 0.00 0.00 0.00 53 1027.2
20190324162015 56 0.0 1.0 0.00 0.00 0.00 51 1027.1
20190324161015 56 281 0.0 1.0 0.00 0.00 0.00 51 1027.1
20190324160015 57 157 0.0 2.0 0.00 0.00 0.00 51 1027.2
20190324155015 57 200 0.0 2.0 0.00 0.00 0.00 49 1027.3
20190324154015 58 236 0.0 3.0 0.00 0.00 0.00 49 1027.4
20190324153015 58 225 0.0 3.0 0.00 0.00 0.00 50 1027.4
20190324152016 59 249 0.0 1.0 0.00 0.00 0.00 49 1027.5
20190324151016 59 183 0.0 1.0 0.00 0.00 0.00 48 1027.5
20190324150015 59 14 0.0 1.0 0.00 0.00 0.00 49 1027.5
20190324145015 59 223 0.0 2.0 0.00 0.00 0.00 49 1027.5
20190324144015 60 318 0.0 2.0 0.00 0.00 0.00 47 1027.6
20190324143015 61 0.0 2.0 0.00 0.00 0.00 50 1027.7
20190324142015 60 237 0.0 2.0 0.00 0.00 0.00 49 1027.7
20190324141015 60 269 0.0 1.0 0.00 0.00 0.00 50 1027.8
20190324140015 60 201 0.0 1.0 0.00 0.00 0.00 51 1027.9
20190324135015 60 113 0.0 1.0 0.00 0.00 0.00 51 1028.1
20190324134015 60 164 0.0 1.0 0.00 0.00 0.00 51 1028.1
20190324133015 60 323 0.0 1.0 0.00 0.00 0.00 53 1028.9
20190324132015 60 0.0 1.0 0.00 0.00 0.00 53 1027.6
20190324131015 60 262 0.0 2.0 0.00 0.00 0.00 51 1028.6
20190324130015 60 173 0.0 2.0 0.00 0.00 0.00 52 1028.7
20190324125015 59 137 0.0 1.0 0.00 0.00 0.00 52 1028.9
20190324124015 60 320 0.0 1.0 0.00 0.00 0.00 52 1029.1
20190324123015 60 326 0.0 1.0 0.00 0.00 0.00 52 1029.2
20190324122015 60 0.0 0.0 0.00 0.00 0.00 54 1029.3
20190324121015 59 0.0 1.0 0.00 0.00 0.00 53 1029.3
20190324120015 59 166 0.0 1.0 0.00 0.00 0.00 55 1029.4
20190324115015 59 0.0 1.0 0.00 0.00 0.00 54 1029.6
20190324114015 58 266 0.0 1.0 0.00 0.00 0.00 54 1029.8
20190324113015 58 0.0 0.0 0.00 0.00 0.00 55 1029.8
20190324112015 58 0.0 1.0 0.00 0.00 0.00 58 1030.0
20190324111015 57 248 0.0 1.0 0.00 0.00 0.00 59 1030.0
20190324110015 57 113 0.0 1.0 0.00 0.00 0.00 59 1030.1
20190324105015 57 0.0 1.0 0.00 0.00 0.00 61 1030.2
20190324104015 56 243 0.0 1.0 0.00 0.00 0.00 63 1030.3
20190324103015 55 253 0.0 1.0 0.00 0.00 0.00 66 1030.5
20190324102015 55 0.0 0.0 0.00 0.00 0.00 65 1030.7
20190324101016 54 0.0 0.0 0.00 0.00 0.00 69 1030.8
20190324100015 53 0.0 1.0 0.00 0.00 0.00 70 1030.9
20190324095015 52 13 0.0 1.0 0.00 0.00 0.00 75 1030.9
20190324094015 52 0.0 0.0 0.00 0.00 0.00 77 1030.9
20190324093015 50 0.0 0.0 0.00 0.00 0.00 80 1030.9
20190324092015 49 0.0 0.0 0.00 0.00 0.00 82 1030.9
20190324091015 48 0.0 0.0 0.00 0.00 0.00 84 1031.0
20190324090015 47 0.0 0.0 0.00 0.00 0.00 87 1030.9
20190324085015 46 0.0 0.0 0.00 0.00 0.00 94 1031.1
20190324084016 44 0.0 0.0 0.00 0.00 0.00 96 1031.0
20190324083015 43 0.0 0.0 0.00 0.00 0.00 97 1031.0
20190324082015 41 0.0 0.0 0.00 0.00 0.00 97 1030.8
20190324081016 40 0.0 0.0 0.00 0.00 0.00 97 1031.1
20190324080015 38 0.0 0.0 0.00 0.00 0.00 97 1030.9
20190324075015 37 0.0 0.0 0.00 0.00 0.00 97 1030.9
20190324074015 36 0.0 0.0 0.00 0.00 0.00 97 1030.8
20190324073015 33 0.0 0.0 0.00 0.00 0.00 96 1030.7
20190324072015 32 0.0 0.0 0.00 0.00 0.00 96 1030.5
20190324071015 32 0.0 0.0 0.00 0.00 0.00 96 1030.4
20190324070015 32 0.0 0.0 0.00 0.00 0.00 96 1030.5
20190324065015 32 0.0 0.0 0.00 0.00 0.00 96 1030.6
20190324064015 32 0.0 0.0 0.00 0.00 0.00 96 1030.6
20190324063015 32 0.0 0.0 0.00 0.00 0.00 96 1030.5
20190324062015 32 0.0 0.0 0.00 0.00 0.00 96 1030.6
20190324061016 31 0.0 0.0 0.00 0.00 0.00 96 1030.4
20190324060015 31 0.0 0.0 0.00 0.00 0.00 96 1030.4
20190324055015 31 0.0 0.0 0.00 0.00 0.00 96 1030.4
20190324054015 30 0.0 0.0 0.00 0.00 0.00 96 1030.2
20190324053015 30 0.0 0.0 0.00 0.00 0.00 96 1030.1
20190324052015 31 0.0 0.0 0.00 0.00 0.00 96 1030.2
20190324051015 31 0.0 0.0 0.00 0.00 0.00 96 1029.9
20190324050016 31 0.0 0.0 0.00 0.00 0.00 96 1029.7
20190324045015 30 0.0 0.0 0.00 0.00 0.00 96 1029.6
20190324044015 30 0.0 0.0 0.00 0.00 0.00 96 1029.7
20190324043015 29 0.0 0.0 0.00 0.00 0.00 95 1029.8
20190324042015 29 0.0 0.0 0.00 0.00 0.00 95 1029.9
20190324041015 29 0.0 0.0 0.00 0.00 0.00 95 1030.1
20190324040015 29 0.0 0.0 0.00 0.00 0.00 95 1030.3
20190324035015 29 0.0 0.0 0.00 0.00 0.00 95 1030.3
20190324034015 29 0.0 0.0 0.00 0.00 0.00 95 1030.5
20190324033015 29 0.0 0.0 0.00 0.00 0.00 95 1030.5
20190324032015 29 0.0 0.0 0.00 0.00 0.00 95 1030.5
20190324031015 29 0.0 0.0 0.00 0.00 0.00 95 1030.6
20190324030015 30 0.0 0.0 0.00 0.00 0.00 95 1030.6
20190324025015 30 0.0 0.0 0.00 0.00 0.00 95 1030.6
20190324024015 30 0.0 0.0 0.00 0.00 0.00 95 1030.6
20190324023015 30 0.0 0.0 0.00 0.00 0.00 95 1030.6
20190324022015 30 0.0 0.0 0.00 0.00 0.00 95 1030.8
20190324021015 30 0.0 0.0 0.00 0.00 0.00 95 1030.9
20190324020015 30 0.0 0.0 0.00 0.00 0.00 94 1031.1
20190324015015 30 0.0 0.0 0.00 0.00 0.00 94 1031.3
20190324014015 30 0.0 0.0 0.00 0.00 0.00 94 1031.4
20190324013015 31 0.0 0.0 0.00 0.00 0.00 94 1031.4
20190324012015 31 0.0 0.0 0.00 0.00 0.00 94 1031.4
20190324011015 31 0.0 0.0 0.00 0.00 0.00 94 1031.5
20190324010015 32 0.0 0.0 0.00 0.00 0.00 94 1031.6
20190324005015 32 0.0 0.0 0.00 0.00 0.00 94 1031.6
20190324004015 32 0.0 0.0 0.00 0.00 0.00 94 1031.6
20190324003015 32 0.0 0.0 0.00 0.00 0.00 93 1031.6
20190324002015 33 0.0 0.0 0.00 0.00 0.00 94 1031.8
20190324001015 33 0.0 0.0 0.00 0.00 0.00 94 1031.8
20190324000015 33 0.0 0.0 0.00 0.00 0.00 93 1031.7
20190323235015 33 0.0 0.0 0.00 0.00 0.00 93 1031.8
20190323234015 33 0.0 0.0 0.00 0.00 0.00 93 1031.8
20190323233015 34 0.0 0.0 0.00 0.00 0.00 92 1031.8
20190323232015 34 0.0 0.0 0.00 0.00 0.00 92 1031.8
20190323231015 35 0.0 0.0 0.00 0.00 0.00 92 1031.7
20190323230015 35 0.0 0.0 0.00 0.00 0.00 92 1031.8
20190323225015 36 0.0 0.0 0.00 0.00 0.00 92 1031.8
20190323224015 37 0.0 0.0 0.00 0.00 0.00 92 1031.8
20190323223015 37 0.0 0.0 0.00 0.00 0.00 92 1031.9
20190323222015 37 0.0 0.0 0.00 0.00 0.00 91 1031.9
20190323221015 37 0.0 0.0 0.00 0.00 0.00 90 1031.9